sensor_id;sensor_type;location;lat;lon;timestamp;temperature;humidity
51305;HTU21D;37392;50.964;6.952;2023-04-24T00:01:45;11.83;94.10
51305;HTU21D;37392;50.964;6.952;2023-04-24T00:04:13;11.82;94.26
51305;HTU21D;37392;50.964;6.952;2023-04-24T00:06:41;11.82;94.30
51305;HTU21D;37392;50.964;6.952;2023-04-24T00:09:10;11.81;94.59
51305;HTU21D;37392;50.964;6.952;2023-04-24T00:11:36;11.84;93.66
51305;HTU21D;37392;50.964;6.952;2023-04-24T00:14:04;11.86;93.72
51305;HTU21D;37392;50.964;6.952;2023-04-24T00:16:37;11.81;93.95
51305;HTU21D;37392;50.964;6.952;2023-04-24T00:19:05;11.81;93.82
51305;HTU21D;37392;50.964;6.952;2023-04-24T00:21:35;11.83;93.97
51305;HTU21D;37392;50.964;6.952;2023-04-24T00:24:09;11.81;94.11
51305;HTU21D;37392;50.964;6.952;2023-04-24T00:26:38;11.76;94.10
51305;HTU21D;37392;50.964;6.952;2023-04-24T00:29:13;11.74;93.88
51305;HTU21D;37392;50.964;6.952;2023-04-24T00:31:39;11.73;93.66
51305;HTU21D;37392;50.964;6.952;2023-04-24T00:34:16;11.72;93.65
51305;HTU21D;37392;50.964;6.952;2023-04-24T00:36:46;11.79;93.46
51305;HTU21D;37392;50.964;6.952;2023-04-24T00:39:14;11.82;93.16
51305;HTU21D;37392;50.964;6.952;2023-04-24T00:41:43;11.88;91.98
51305;HTU21D;37392;50.964;6.952;2023-04-24T00:44:08;11.90;91.21
51305;HTU21D;37392;50.964;6.952;2023-04-24T00:46:34;11.90;90.75
51305;HTU21D;37392;50.964;6.952;2023-04-24T00:49:00;11.89;91.31
51305;HTU21D;37392;50.964;6.952;2023-04-24T00:51:25;11.90;91.45
51305;HTU21D;37392;50.964;6.952;2023-04-24T00:53:53;11.86;91.48
51305;HTU21D;37392;50.964;6.952;2023-04-24T00:56:24;11.87;91.06
51305;HTU21D;37392;50.964;6.952;2023-04-24T00:58:55;11.89;90.28
51305;HTU21D;37392;50.964;6.952;2023-04-24T01:01:27;11.89;90.32
51305;HTU21D;37392;50.964;6.952;2023-04-24T01:03:52;11.91;90.22
51305;HTU21D;37392;50.964;6.952;2023-04-24T01:06:38;11.88;89.85
51305;HTU21D;37392;50.964;6.952;2023-04-24T01:09:10;11.86;89.34
51305;HTU21D;37392;50.964;6.952;2023-04-24T01:11:45;11.84;89.12
51305;HTU21D;37392;50.964;6.952;2023-04-24T01:14:12;11.83;89.41
51305;HTU21D;37392;50.964;6.952;2023-04-24T01:16:43;11.86;88.25
51305;HTU21D;37392;50.964;6.952;2023-04-24T01:19:11;11.83;87.43
51305;HTU21D;37392;50.964;6.952;2023-04-24T01:21:42;11.82;86.90
51305;HTU21D;37392;50.964;6.952;2023-04-24T01:24:11;11.77;86.71
51305;HTU21D;37392;50.964;6.952;2023-04-24T01:26:39;11.77;86.62
51305;HTU21D;37392;50.964;6.952;2023-04-24T01:29:05;11.77;86.19
51305;HTU21D;37392;50.964;6.952;2023-04-24T01:31:30;11.74;86.47
51305;HTU21D;37392;50.964;6.952;2023-04-24T01:34:05;11.69;86.51
51305;HTU21D;37392;50.964;6.952;2023-04-24T01:36:39;11.67;84.93
51305;HTU21D;37392;50.964;6.952;2023-04-24T01:39:17;11.62;84.28
51305;HTU21D;37392;50.964;6.952;2023-04-24T01:41:50;11.55;83.67
51305;HTU21D;37392;50.964;6.952;2023-04-24T01:44:19;11.48;84.49
51305;HTU21D;37392;50.964;6.952;2023-04-24T01:46:47;11.39;84.61
51305;HTU21D;37392;50.964;6.952;2023-04-24T01:49:13;11.33;84.53
51305;HTU21D;37392;50.964;6.952;2023-04-24T01:51:49;11.27;84.78
51305;HTU21D;37392;50.964;6.952;2023-04-24T01:54:14;11.17;84.73
51305;HTU21D;37392;50.964;6.952;2023-04-24T01:56:41;11.10;85.03
51305;HTU21D;37392;50.964;6.952;2023-04-24T01:59:10;10.98;85.58
51305;HTU21D;37392;50.964;6.952;2023-04-24T02:01:39;10.89;86.03
51305;HTU21D;37392;50.964;6.952;2023-04-24T02:04:05;10.80;86.60
51305;HTU21D;37392;50.964;6.952;2023-04-24T02:06:31;10.69;86.68
51305;HTU21D;37392;50.964;6.952;2023-04-24T02:08:57;10.63;87.38
51305;HTU21D;37392;50.964;6.952;2023-04-24T02:11:23;10.50;87.96
51305;HTU21D;37392;50.964;6.952;2023-04-24T02:13:48;10.40;88.09
51305;HTU21D;37392;50.964;6.952;2023-04-24T02:16:15;10.24;88.80
51305;HTU21D;37392;50.964;6.952;2023-04-24T02:18:41;10.18;89.66
51305;HTU21D;37392;50.964;6.952;2023-04-24T02:21:06;10.07;89.90
51305;HTU21D;37392;50.964;6.952;2023-04-24T02:23:31;9.95;90.24
51305;HTU21D;37392;50.964;6.952;2023-04-24T02:25:57;9.83;90.74
51305;HTU21D;37392;50.964;6.952;2023-04-24T02:28:22;9.75;91.42
51305;HTU21D;37392;50.964;6.952;2023-04-24T02:30:48;9.70;91.70
51305;HTU21D;37392;50.964;6.952;2023-04-24T02:33:13;9.63;91.89
51305;HTU21D;37392;50.964;6.952;2023-04-24T02:35:39;9.52;92.40
51305;HTU21D;37392;50.964;6.952;2023-04-24T02:38:04;9.49;92.31
51305;HTU21D;37392;50.964;6.952;2023-04-24T02:40:30;9.51;92.37
51305;HTU21D;37392;50.964;6.952;2023-04-24T02:42:55;9.47;92.61
51305;HTU21D;37392;50.964;6.952;2023-04-24T02:45:21;9.44;92.61
51305;HTU21D;37392;50.964;6.952;2023-04-24T02:47:46;9.49;92.66
51305;HTU21D;37392;50.964;6.952;2023-04-24T02:50:12;9.49;92.59
51305;HTU21D;37392;50.964;6.952;2023-04-24T02:52:37;9.57;92.70
51305;HTU21D;37392;50.964;6.952;2023-04-24T02:55:03;9.69;92.13
51305;HTU21D;37392;50.964;6.952;2023-04-24T02:57:29;9.80;92.07
51305;HTU21D;37392;50.964;6.952;2023-04-24T02:59:55;9.88;91.63
51305;HTU21D;37392;50.964;6.952;2023-04-24T03:02:23;9.95;91.23
51305;HTU21D;37392;50.964;6.952;2023-04-24T03:04:50;10.00;91.06
51305;HTU21D;37392;50.964;6.952;2023-04-24T03:07:15;10.08;90.70
51305;HTU21D;37392;50.964;6.952;2023-04-24T03:09:41;10.12;90.63
51305;HTU21D;37392;50.964;6.952;2023-04-24T03:12:06;10.15;90.57
51305;HTU21D;37392;50.964;6.952;2023-04-24T03:14:32;10.13;90.08
51305;HTU21D;37392;50.964;6.952;2023-04-24T03:16:57;10.14;89.89
51305;HTU21D;37392;50.964;6.952;2023-04-24T03:19:23;10.05;90.29
51305;HTU21D;37392;50.964;6.952;2023-04-24T03:21:49;9.99;90.46
51305;HTU21D;37392;50.964;6.952;2023-04-24T03:24:14;9.95;90.58
51305;HTU21D;37392;50.964;6.952;2023-04-24T03:26:40;9.89;90.89
51305;HTU21D;37392;50.964;6.952;2023-04-24T03:29:05;9.86;91.21
51305;HTU21D;37392;50.964;6.952;2023-04-24T03:31:31;9.91;91.16
51305;HTU21D;37392;50.964;6.952;2023-04-24T03:33:56;9.95;90.64
51305;HTU21D;37392;50.964;6.952;2023-04-24T03:36:21;10.01;90.69
51305;HTU21D;37392;50.964;6.952;2023-04-24T03:38:47;9.98;90.57
51305;HTU21D;37392;50.964;6.952;2023-04-24T03:41:13;9.90;90.51
51305;HTU21D;37392;50.964;6.952;2023-04-24T03:43:38;9.71;90.92
51305;HTU21D;37392;50.964;6.952;2023-04-24T03:46:04;9.56;91.51
51305;HTU21D;37392;50.964;6.952;2023-04-24T03:48:30;9.40;91.81
51305;HTU21D;37392;50.964;6.952;2023-04-24T03:50:55;9.44;92.18
51305;HTU21D;37392;50.964;6.952;2023-04-24T03:53:21;9.44;92.08
51305;HTU21D;37392;50.964;6.952;2023-04-24T03:55:47;9.47;91.95
51305;HTU21D;37392;50.964;6.952;2023-04-24T03:58:12;9.55;91.69
51305;HTU21D;37392;50.964;6.952;2023-04-24T04:00:39;9.63;91.00
51305;HTU21D;37392;50.964;6.952;2023-04-24T04:03:05;9.68;90.66
51305;HTU21D;37392;50.964;6.952;2023-04-24T04:05:31;9.71;90.41
51305;HTU21D;37392;50.964;6.952;2023-04-24T04:07:56;9.75;90.35
51305;HTU21D;37392;50.964;6.952;2023-04-24T04:10:22;9.72;90.53
51305;HTU21D;37392;50.964;6.952;2023-04-24T04:12:47;9.70;90.42
51305;HTU21D;37392;50.964;6.952;2023-04-24T04:15:13;9.64;90.66
51305;HTU21D;37392;50.964;6.952;2023-04-24T04:17:39;9.64;90.57
51305;HTU21D;37392;50.964;6.952;2023-04-24T04:20:04;9.61;90.78
51305;HTU21D;37392;50.964;6.952;2023-04-24T04:22:39;9.66;90.61
51305;HTU21D;37392;50.964;6.952;2023-04-24T04:25:05;9.69;90.58
51305;HTU21D;37392;50.964;6.952;2023-04-24T04:27:31;9.68;90.63
51305;HTU21D;37392;50.964;6.952;2023-04-24T04:29:57;9.68;90.49
51305;HTU21D;37392;50.964;6.952;2023-04-24T04:32:26;9.74;90.62
51305;HTU21D;37392;50.964;6.952;2023-04-24T04:34:52;9.75;90.93
51305;HTU21D;37392;50.964;6.952;2023-04-24T04:37:18;9.78;90.86
51305;HTU21D;37392;50.964;6.952;2023-04-24T04:39:44;9.79;90.76
51305;HTU21D;37392;50.964;6.952;2023-04-24T04:42:09;9.80;90.66
51305;HTU21D;37392;50.964;6.952;2023-04-24T04:44:35;9.83;90.44
51305;HTU21D;37392;50.964;6.952;2023-04-24T04:47:01;9.83;90.37
51305;HTU21D;37392;50.964;6.952;2023-04-24T04:49:31;9.86;90.50
51305;HTU21D;37392;50.964;6.952;2023-04-24T04:51:57;9.88;90.23
51305;HTU21D;37392;50.964;6.952;2023-04-24T04:54:22;9.92;90.34
51305;HTU21D;37392;50.964;6.952;2023-04-24T04:56:49;9.91;90.57
51305;HTU21D;37392;50.964;6.952;2023-04-24T04:59:15;9.96;90.04
51305;HTU21D;37392;50.964;6.952;2023-04-24T05:01:41;9.96;89.99
51305;HTU21D;37392;50.964;6.952;2023-04-24T05:04:06;9.98;89.77
51305;HTU21D;37392;50.964;6.952;2023-04-24T05:06:32;9.99;89.93
51305;HTU21D;37392;50.964;6.952;2023-04-24T05:08:57;10.00;90.06
51305;HTU21D;37392;50.964;6.952;2023-04-24T05:11:23;10.01;90.02
51305;HTU21D;37392;50.964;6.952;2023-04-24T05:13:48;10.04;89.92
51305;HTU21D;37392;50.964;6.952;2023-04-24T05:16:14;10.05;89.66
51305;HTU21D;37392;50.964;6.952;2023-04-24T05:18:40;10.06;89.60
51305;HTU21D;37392;50.964;6.952;2023-04-24T05:21:06;10.09;89.65
51305;HTU21D;37392;50.964;6.952;2023-04-24T05:23:31;10.07;89.33
51305;HTU21D;37392;50.964;6.952;2023-04-24T05:25:57;10.11;89.22
51305;HTU21D;37392;50.964;6.952;2023-04-24T05:28:22;10.11;89.28
51305;HTU21D;37392;50.964;6.952;2023-04-24T05:30:48;10.13;89.45
51305;HTU21D;37392;50.964;6.952;2023-04-24T05:33:13;10.15;89.34
51305;HTU21D;37392;50.964;6.952;2023-04-24T05:35:40;10.16;89.43
51305;HTU21D;37392;50.964;6.952;2023-04-24T05:38:10;10.18;90.19
51305;HTU21D;37392;50.964;6.952;2023-04-24T05:40:36;10.18;90.61
51305;HTU21D;37392;50.964;6.952;2023-04-24T05:43:02;10.19;92.37
51305;HTU21D;37392;50.964;6.952;2023-04-24T05:45:27;10.08;96.49
51305;HTU21D;37392;50.964;6.952;2023-04-24T05:47:53;9.94;99.69
51305;HTU21D;37392;50.964;6.952;2023-04-24T05:50:18;9.79;101.33
51305;HTU21D;37392;50.964;6.952;2023-04-24T05:52:44;9.70;100.59
51305;HTU21D;37392;50.964;6.952;2023-04-24T05:55:09;9.61;101.22
51305;HTU21D;37392;50.964;6.952;2023-04-24T05:57:35;9.59;102.02
51305;HTU21D;37392;50.964;6.952;2023-04-24T06:00:00;9.60;101.65
51305;HTU21D;37392;50.964;6.952;2023-04-24T06:02:26;9.62;100.23
51305;HTU21D;37392;50.964;6.952;2023-04-24T06:04:52;9.65;100.58
51305;HTU21D;37392;50.964;6.952;2023-04-24T06:07:18;9.65;99.72
51305;HTU21D;37392;50.964;6.952;2023-04-24T06:09:43;9.67;99.13
51305;HTU21D;37392;50.964;6.952;2023-04-24T06:12:09;9.74;98.99
51305;HTU21D;37392;50.964;6.952;2023-04-24T06:14:35;9.72;99.13
51305;HTU21D;37392;50.964;6.952;2023-04-24T06:17:00;9.67;100.58
51305;HTU21D;37392;50.964;6.952;2023-04-24T06:19:25;9.60;98.80
51305;HTU21D;37392;50.964;6.952;2023-04-24T06:21:51;9.52;99.45
51305;HTU21D;37392;50.964;6.952;2023-04-24T06:24:16;9.52;99.49
51305;HTU21D;37392;50.964;6.952;2023-04-24T06:26:42;9.55;99.47
51305;HTU21D;37392;50.964;6.952;2023-04-24T06:29:07;9.54;101.38
51305;HTU21D;37392;50.964;6.952;2023-04-24T06:31:33;9.48;103.50
51305;HTU21D;37392;50.964;6.952;2023-04-24T06:34:02;9.42;104.71
51305;HTU21D;37392;50.964;6.952;2023-04-24T06:36:28;9.42;106.44
51305;HTU21D;37392;50.964;6.952;2023-04-24T06:38:54;9.40;105.95
51305;HTU21D;37392;50.964;6.952;2023-04-24T06:41:19;9.38;104.30
51305;HTU21D;37392;50.964;6.952;2023-04-24T06:43:45;9.26;105.87
51305;HTU21D;37392;50.964;6.952;2023-04-24T06:46:10;9.20;107.70
51305;HTU21D;37392;50.964;6.952;2023-04-24T06:48:36;9.15;107.62
51305;HTU21D;37392;50.964;6.952;2023-04-24T06:51:01;9.02;108.56
51305;HTU21D;37392;50.964;6.952;2023-04-24T06:53:27;8.93;110.62
51305;HTU21D;37392;50.964;6.952;2023-04-24T06:55:52;8.82;112.06
51305;HTU21D;37392;50.964;6.952;2023-04-24T06:58:18;8.83;113.71
51305;HTU21D;37392;50.964;6.952;2023-04-24T07:00:43;8.78;114.66
51305;HTU21D;37392;50.964;6.952;2023-04-24T07:03:09;8.80;116.00
51305;HTU21D;37392;50.964;6.952;2023-04-24T07:05:34;8.74;116.12
51305;HTU21D;37392;50.964;6.952;2023-04-24T07:08:00;8.72;118.60
51305;HTU21D;37392;50.964;6.952;2023-04-24T07:10:26;8.75;118.51
51305;HTU21D;37392;50.964;6.952;2023-04-24T07:12:53;8.76;-5.45
51305;HTU21D;37392;50.964;6.952;2023-04-24T07:15:19;8.79;-5.31
51305;HTU21D;37392;50.964;6.952;2023-04-24T07:17:44;8.77;-5.35
51305;HTU21D;37392;50.964;6.952;2023-04-24T07:20:10;8.74;-4.78
51305;HTU21D;37392;50.964;6.952;2023-04-24T07:22:40;8.79;-3.56
51305;HTU21D;37392;50.964;6.952;2023-04-24T07:25:05;8.83;-3.70
51305;HTU21D;37392;50.964;6.952;2023-04-24T07:27:32;8.85;-4.48
51305;HTU21D;37392;50.964;6.952;2023-04-24T07:29:57;8.81;-3.67
51305;HTU21D;37392;50.964;6.952;2023-04-24T07:32:23;8.81;-3.20
51305;HTU21D;37392;50.964;6.952;2023-04-24T07:34:49;8.82;-3.08
51305;HTU21D;37392;50.964;6.952;2023-04-24T07:37:14;8.87;-3.46
51305;HTU21D;37392;50.964;6.952;2023-04-24T07:39:40;8.83;-4.25
51305;HTU21D;37392;50.964;6.952;2023-04-24T07:42:05;8.75;-4.41
51305;HTU21D;37392;50.964;6.952;2023-04-24T07:44:31;8.76;-2.56
51305;HTU21D;37392;50.964;6.952;2023-04-24T07:46:57;8.67;-5.02
51305;HTU21D;37392;50.964;6.952;2023-04-24T07:49:22;8.58;-4.02
51305;HTU21D;37392;50.964;6.952;2023-04-24T07:51:48;8.58;-3.54
51305;HTU21D;37392;50.964;6.952;2023-04-24T07:54:14;8.52;-2.65
51305;HTU21D;37392;50.964;6.952;2023-04-24T07:56:40;8.46;-2.80
51305;HTU21D;37392;50.964;6.952;2023-04-24T07:59:08;8.44;-2.86
51305;HTU21D;37392;50.964;6.952;2023-04-24T08:01:35;8.37;-2.45
51305;HTU21D;37392;50.964;6.952;2023-04-24T08:04:00;8.33;-2.39
51305;HTU21D;37392;50.964;6.952;2023-04-24T08:06:26;8.22;-3.95
51305;HTU21D;37392;50.964;6.952;2023-04-24T08:08:55;8.17;-2.28
51305;HTU21D;37392;50.964;6.952;2023-04-24T08:11:21;8.15;-1.96
51305;HTU21D;37392;50.964;6.952;2023-04-24T08:13:47;8.18;-0.68
51305;HTU21D;37392;50.964;6.952;2023-04-24T08:16:12;8.19;-1.32
51305;HTU21D;37392;50.964;6.952;2023-04-24T08:18:38;8.18;-1.40
51305;HTU21D;37392;50.964;6.952;2023-04-24T08:21:03;8.15;-0.77
51305;HTU21D;37392;50.964;6.952;2023-04-24T08:23:29;8.16;-0.94
51305;HTU21D;37392;50.964;6.952;2023-04-24T08:25:55;8.05;-1.54
51305;HTU21D;37392;50.964;6.952;2023-04-24T08:28:20;7.99;-1.64
51305;HTU21D;37392;50.964;6.952;2023-04-24T08:30:46;7.90;-1.96
51305;HTU21D;37392;50.964;6.952;2023-04-24T08:33:13;7.83;-1.54
51305;HTU21D;37392;50.964;6.952;2023-04-24T08:35:39;7.77;-1.95
51305;HTU21D;37392;50.964;6.952;2023-04-24T08:38:05;7.72;-2.31
51305;HTU21D;37392;50.964;6.952;2023-04-24T08:40:30;7.74;-1.14
51305;HTU21D;37392;50.964;6.952;2023-04-24T08:42:59;7.75;-1.46
51305;HTU21D;37392;50.964;6.952;2023-04-24T08:45:24;7.74;-1.38
51305;HTU21D;37392;50.964;6.952;2023-04-24T08:47:51;7.73;-1.65
51305;HTU21D;37392;50.964;6.952;2023-04-24T08:50:18;7.73;-2.44
51305;HTU21D;37392;50.964;6.952;2023-04-24T08:52:44;7.73;-1.80
51305;HTU21D;37392;50.964;6.952;2023-04-24T08:55:10;7.73;-1.67
51305;HTU21D;37392;50.964;6.952;2023-04-24T08:57:36;7.73;-1.24
51305;HTU21D;37392;50.964;6.952;2023-04-24T09:00:04;7.79;-1.00
51305;HTU21D;37392;50.964;6.952;2023-04-24T09:02:31;7.82;-0.90
51305;HTU21D;37392;50.964;6.952;2023-04-24T09:04:57;7.85;-0.94
51305;HTU21D;37392;50.964;6.952;2023-04-24T09:07:24;7.88;-0.74
51305;HTU21D;37392;50.964;6.952;2023-04-24T09:09:50;7.90;-0.53
51305;HTU21D;37392;50.964;6.952;2023-04-24T09:12:17;8.00;-0.22
51305;HTU21D;37392;50.964;6.952;2023-04-24T09:14:42;7.93;-1.16
51305;HTU21D;37392;50.964;6.952;2023-04-24T09:17:10;8.00;-0.32
51305;HTU21D;37392;50.964;6.952;2023-04-24T09:19:36;8.08;0.53
51305;HTU21D;37392;50.964;6.952;2023-04-24T09:22:05;8.14;0.31
51305;HTU21D;37392;50.964;6.952;2023-04-24T09:24:31;8.22;0.23
51305;HTU21D;37392;50.964;6.952;2023-04-24T09:26:57;8.28;0.43
51305;HTU21D;37392;50.964;6.952;2023-04-24T09:29:24;8.35;0.13
51305;HTU21D;37392;50.964;6.952;2023-04-24T09:31:50;8.45;0.77
51305;HTU21D;37392;50.964;6.952;2023-04-24T09:34:18;8.51;1.26
51305;HTU21D;37392;50.964;6.952;2023-04-24T09:36:46;8.60;1.28
51305;HTU21D;37392;50.964;6.952;2023-04-24T09:39:12;8.62;0.78
51305;HTU21D;37392;50.964;6.952;2023-04-24T09:44:17;8.86;2.13
51305;HTU21D;37392;50.964;6.952;2023-04-24T09:46:48;8.92;1.80
51305;HTU21D;37392;50.964;6.952;2023-04-24T09:49:16;9.03;1.85
51305;HTU21D;37392;50.964;6.952;2023-04-24T09:51:49;9.23;2.06
51305;HTU21D;37392;50.964;6.952;2023-04-24T09:54:15;9.24;0.56
51305;HTU21D;37392;50.964;6.952;2023-04-24T09:56:48;9.38;1.42
51305;HTU21D;37392;50.964;6.952;2023-04-24T09:59:17;9.52;1.05
51305;HTU21D;37392;50.964;6.952;2023-04-24T10:01:43;9.67;1.43
51305;HTU21D;37392;50.964;6.952;2023-04-24T10:04:16;9.94;2.23
51305;HTU21D;37392;50.964;6.952;2023-04-24T10:06:50;9.93;-0.27
51305;HTU21D;37392;50.964;6.952;2023-04-24T10:09:17;10.01;0.32
51305;HTU21D;37392;50.964;6.952;2023-04-24T10:11:46;10.11;0.17
51305;HTU21D;37392;50.964;6.952;2023-04-24T10:14:13;10.24;0.09
51305;HTU21D;37392;50.964;6.952;2023-04-24T10:16:43;10.27;-1.16
51305;HTU21D;37392;50.964;6.952;2023-04-24T10:19:09;10.45;-0.06
51305;HTU21D;37392;50.964;6.952;2023-04-24T10:21:36;10.74;0.03
51305;HTU21D;37392;50.964;6.952;2023-04-24T10:24:07;10.99;-0.26
51305;HTU21D;37392;50.964;6.952;2023-04-24T10:26:34;10.92;-4.35
51305;HTU21D;37392;50.964;6.952;2023-04-24T10:29:00;11.20;-1.63
51305;HTU21D;37392;50.964;6.952;2023-04-24T10:31:26;11.32;-3.42
51305;HTU21D;37392;50.964;6.952;2023-04-24T10:33:52;11.45;-3.58
51305;HTU21D;37392;50.964;6.952;2023-04-24T10:36:18;11.64;-3.77
51305;HTU21D;37392;50.964;6.952;2023-04-24T10:38:47;11.84;-5.37
51305;HTU21D;37392;50.964;6.952;2023-04-24T10:41:14;11.84;118.09
51305;HTU21D;37392;50.964;6.952;2023-04-24T10:43:45;11.72;117.07
51305;HTU21D;37392;50.964;6.952;2023-04-24T10:46:11;11.62;116.41
51305;HTU21D;37392;50.964;6.952;2023-04-24T10:48:42;11.62;116.31
51305;HTU21D;37392;50.964;6.952;2023-04-24T10:51:11;11.61;116.57
51305;HTU21D;37392;50.964;6.952;2023-04-24T10:53:37;11.56;114.51
51305;HTU21D;37392;50.964;6.952;2023-04-24T10:56:05;11.52;114.83
51305;HTU21D;37392;50.964;6.952;2023-04-24T10:58:38;11.46;115.09
51305;HTU21D;37392;50.964;6.952;2023-04-24T11:01:06;11.57;116.41
51305;HTU21D;37392;50.964;6.952;2023-04-24T11:03:33;11.51;114.45
51305;HTU21D;37392;50.964;6.952;2023-04-24T11:06:03;11.34;115.03
51305;HTU21D;37392;50.964;6.952;2023-04-24T11:08:46;11.22;115.05
51305;HTU21D;37392;50.964;6.952;2023-04-24T11:11:17;10.96;117.03
51305;HTU21D;37392;50.964;6.952;2023-04-24T11:19:18;9.94;-5.18
51305;HTU21D;37392;50.964;6.952;2023-04-24T11:21:47;9.84;-3.96
51305;HTU21D;37392;50.964;6.952;2023-04-24T11:27:06;10.01;-3.25
51305;HTU21D;37392;50.964;6.952;2023-04-24T11:32:35;10.95;-3.00
51305;HTU21D;37392;50.964;6.952;2023-04-24T11:35:12;11.53;-2.93
51305;HTU21D;37392;50.964;6.952;2023-04-24T11:37:44;12.04;-5.44
51305;HTU21D;37392;50.964;6.952;2023-04-24T11:40:12;12.20;116.83
51305;HTU21D;37392;50.964;6.952;2023-04-24T11:42:41;12.04;114.53
51305;HTU21D;37392;50.964;6.952;2023-04-24T11:45:12;11.78;116.10
51305;HTU21D;37392;50.964;6.952;2023-04-24T11:47:39;11.61;117.06
51305;HTU21D;37392;50.964;6.952;2023-04-24T11:50:06;11.40;-5.43
51305;HTU21D;37392;50.964;6.952;2023-04-24T11:52:33;11.34;-4.86
51305;HTU21D;37392;50.964;6.952;2023-04-24T11:55:02;11.33;-5.05
51305;HTU21D;37392;50.964;6.952;2023-04-24T11:57:28;11.38;-3.44
51305;HTU21D;37392;50.964;6.952;2023-04-24T11:59:59;11.37;-3.96
51305;HTU21D;37392;50.964;6.952;2023-04-24T12:02:25;11.47;-4.02
51305;HTU21D;37392;50.964;6.952;2023-04-24T12:04:55;11.86;-3.24
51305;HTU21D;37392;50.964;6.952;2023-04-24T12:07:21;12.29;-2.38
51305;HTU21D;37392;50.964;6.952;2023-04-24T12:09:49;12.48;117.43
51305;HTU21D;37392;50.964;6.952;2023-04-24T12:12:23;12.65;118.52
51305;HTU21D;37392;50.964;6.952;2023-04-24T12:14:52;12.69;117.98
51305;HTU21D;37392;50.964;6.952;2023-04-24T12:17:29;12.60;118.16
51305;HTU21D;37392;50.964;6.952;2023-04-24T12:20:00;12.53;115.91
51305;HTU21D;37392;50.964;6.952;2023-04-24T12:22:27;12.56;116.43
51305;HTU21D;37392;50.964;6.952;2023-04-24T12:25:01;12.73;116.73
51305;HTU21D;37392;50.964;6.952;2023-04-24T12:27:32;12.86;112.04
51305;HTU21D;37392;50.964;6.952;2023-04-24T12:30:02;12.99;111.13
51305;HTU21D;37392;50.964;6.952;2023-04-24T12:32:29;13.40;110.20
51305;HTU21D;37392;50.964;6.952;2023-04-24T12:34:55;13.67;108.88
51305;HTU21D;37392;50.964;6.952;2023-04-24T12:37:22;13.98;104.02
51305;HTU21D;37392;50.964;6.952;2023-04-24T12:40:09;14.25;104.29
51305;HTU21D;37392;50.964;6.952;2023-04-24T12:42:36;14.35;104.76
51305;HTU21D;37392;50.964;6.952;2023-04-24T12:45:10;14.53;101.73
51305;HTU21D;37392;50.964;6.952;2023-04-24T12:47:37;14.54;99.05
51305;HTU21D;37392;50.964;6.952;2023-04-24T12:50:03;14.38;99.60
51305;HTU21D;37392;50.964;6.952;2023-04-24T12:52:33;14.11;99.88
51305;HTU21D;37392;50.964;6.952;2023-04-24T12:54:59;13.80;99.83
51305;HTU21D;37392;50.964;6.952;2023-04-24T12:57:26;13.58;99.34
51305;HTU21D;37392;50.964;6.952;2023-04-24T12:59:56;13.61;102.15
51305;HTU21D;37392;50.964;6.952;2023-04-24T13:02:23;13.82;104.76
51305;HTU21D;37392;50.964;6.952;2023-04-24T13:04:49;14.07;101.32
51305;HTU21D;37392;50.964;6.952;2023-04-24T13:07:15;14.14;97.78
51305;HTU21D;37392;50.964;6.952;2023-04-24T13:09:42;14.44;97.44
51305;HTU21D;37392;50.964;6.952;2023-04-24T13:12:08;14.57;93.30
51305;HTU21D;37392;50.964;6.952;2023-04-24T13:14:34;14.56;96.94
51305;HTU21D;37392;50.964;6.952;2023-04-24T13:17:00;14.49;97.41
51305;HTU21D;37392;50.964;6.952;2023-04-24T13:19:26;14.67;97.36
51305;HTU21D;37392;50.964;6.952;2023-04-24T13:21:52;14.70;93.86
51305;HTU21D;37392;50.964;6.952;2023-04-24T13:24:21;14.69;91.20
51305;HTU21D;37392;50.964;6.952;2023-04-24T13:26:51;14.73;91.79
51305;HTU21D;37392;50.964;6.952;2023-04-24T13:29:17;14.80;92.21
51305;HTU21D;37392;50.964;6.952;2023-04-24T13:31:43;14.83;88.31
51305;HTU21D;37392;50.964;6.952;2023-04-24T13:34:12;14.78;87.78
51305;HTU21D;37392;50.964;6.952;2023-04-24T13:36:38;14.79;87.20
51305;HTU21D;37392;50.964;6.952;2023-04-24T13:39:03;14.64;88.22
51305;HTU21D;37392;50.964;6.952;2023-04-24T13:41:33;14.58;87.98
51305;HTU21D;37392;50.964;6.952;2023-04-24T13:43:59;14.73;86.86
51305;HTU21D;37392;50.964;6.952;2023-04-24T13:46:25;14.54;84.98
51305;HTU21D;37392;50.964;6.952;2023-04-24T13:48:50;14.59;85.45
51305;HTU21D;37392;50.964;6.952;2023-04-24T13:51:16;14.62;83.39
51305;HTU21D;37392;50.964;6.952;2023-04-24T13:53:42;14.81;83.87
51305;HTU21D;37392;50.964;6.952;2023-04-24T13:56:07;14.84;83.24
51305;HTU21D;37392;50.964;6.952;2023-04-24T13:58:34;14.74;81.88
51305;HTU21D;37392;50.964;6.952;2023-04-24T14:01:02;14.81;81.57
51305;HTU21D;37392;50.964;6.952;2023-04-24T14:03:28;14.93;82.02
51305;HTU21D;37392;50.964;6.952;2023-04-24T14:05:54;14.82;79.09
51305;HTU21D;37392;50.964;6.952;2023-04-24T14:08:19;15.01;79.86
51305;HTU21D;37392;50.964;6.952;2023-04-24T14:10:48;15.32;79.46
51305;HTU21D;37392;50.964;6.952;2023-04-24T14:13:13;15.30;76.73
51305;HTU21D;37392;50.964;6.952;2023-04-24T14:15:39;15.21;79.21
51305;HTU21D;37392;50.964;6.952;2023-04-24T14:18:05;14.96;78.75
51305;HTU21D;37392;50.964;6.952;2023-04-24T14:20:30;14.57;77.82
51305;HTU21D;37392;50.964;6.952;2023-04-24T14:22:56;14.49;78.36
51305;HTU21D;37392;50.964;6.952;2023-04-24T14:25:24;14.38;77.84
51305;HTU21D;37392;50.964;6.952;2023-04-24T14:27:50;14.56;77.68
51305;HTU21D;37392;50.964;6.952;2023-04-24T14:30:15;14.73;74.16
51305;HTU21D;37392;50.964;6.952;2023-04-24T14:32:41;14.93;74.53
51305;HTU21D;37392;50.964;6.952;2023-04-24T14:35:07;15.16;74.34
51305;HTU21D;37392;50.964;6.952;2023-04-24T14:37:33;15.25;73.55
51305;HTU21D;37392;50.964;6.952;2023-04-24T14:39:58;15.39;72.51
51305;HTU21D;37392;50.964;6.952;2023-04-24T14:42:24;15.26;72.69
51305;HTU21D;37392;50.964;6.952;2023-04-24T14:44:49;15.40;73.35
51305;HTU21D;37392;50.964;6.952;2023-04-24T14:47:15;15.65;72.57
51305;HTU21D;37392;50.964;6.952;2023-04-24T14:49:42;15.76;69.66
51305;HTU21D;37392;50.964;6.952;2023-04-24T14:52:09;15.87;70.07
51305;HTU21D;37392;50.964;6.952;2023-04-24T14:54:35;15.91;70.48
51305;HTU21D;37392;50.964;6.952;2023-04-24T14:57:00;15.96;68.65
51305;HTU21D;37392;50.964;6.952;2023-04-24T14:59:27;15.98;67.78
51305;HTU21D;37392;50.964;6.952;2023-04-24T15:01:53;16.08;67.86
51305;HTU21D;37392;50.964;6.952;2023-04-24T15:04:23;15.83;68.42
51305;HTU21D;37392;50.964;6.952;2023-04-24T15:06:51;15.92;68.93
51305;HTU21D;37392;50.964;6.952;2023-04-24T15:09:16;16.06;68.71
51305;HTU21D;37392;50.964;6.952;2023-04-24T15:11:42;15.69;68.91
51305;HTU21D;37392;50.964;6.952;2023-04-24T15:14:08;15.59;70.62
51305;HTU21D;37392;50.964;6.952;2023-04-24T15:16:33;15.41;70.08
51305;HTU21D;37392;50.964;6.952;2023-04-24T15:18:59;15.39;70.43
51305;HTU21D;37392;50.964;6.952;2023-04-24T15:21:24;15.43;69.33
51305;HTU21D;37392;50.964;6.952;2023-04-24T15:23:50;15.56;69.13
51305;HTU21D;37392;50.964;6.952;2023-04-24T15:26:16;15.39;67.97
51305;HTU21D;37392;50.964;6.952;2023-04-24T15:28:42;15.41;69.30
51305;HTU21D;37392;50.964;6.952;2023-04-24T15:31:07;15.37;68.53
51305;HTU21D;37392;50.964;6.952;2023-04-24T15:33:33;15.23;68.70